createdAt,value
2023-05-17T00:00:43.968Z,10.75
2023-05-17T00:03:03.091Z,10.74
2023-05-17T00:05:15.711Z,10.73
2023-05-17T00:07:28.338Z,10.71
2023-05-17T00:09:40.981Z,10.71
2023-05-17T00:11:53.602Z,10.72
2023-05-17T00:14:06.233Z,10.73
2023-05-17T00:16:18.872Z,10.72
2023-05-17T00:18:31.570Z,10.73
2023-05-17T00:20:44.339Z,10.75
2023-05-17T00:22:56.915Z,10.75
2023-05-17T00:25:09.478Z,10.75
2023-05-17T00:27:22.080Z,10.77
2023-05-17T00:29:34.698Z,10.76
2023-05-17T00:31:47.247Z,10.75
2023-05-17T00:33:59.765Z,10.74
2023-05-17T00:36:12.300Z,10.75
2023-05-17T00:38:25.043Z,10.76
2023-05-17T00:40:37.639Z,10.76
2023-05-17T00:42:50.409Z,10.75
2023-05-17T00:45:03.323Z,10.75
2023-05-17T00:47:15.882Z,10.74
2023-05-17T00:49:29.097Z,10.72
2023-05-17T00:51:41.783Z,10.72
2023-05-17T00:53:54.499Z,10.73
2023-05-17T00:56:07.380Z,10.75
2023-05-17T00:58:20.207Z,10.75
2023-05-17T01:00:33.292Z,10.72
2023-05-17T01:02:48.742Z,10.71
2023-05-17T01:05:01.918Z,10.69
2023-05-17T01:07:15.088Z,10.67
2023-05-17T01:09:27.916Z,10.66
2023-05-17T01:12:11.046Z,10.66
2023-05-17T01:14:36.451Z,10.61
2023-05-17T01:16:56.787Z,10.59
2023-05-17T01:19:46.574Z,10.58
2023-05-17T01:22:17.833Z,10.51
2023-05-17T01:24:44.270Z,10.47
2023-05-17T01:26:59.196Z,10.46
2023-05-17T01:29:14.292Z,10.48
2023-05-17T01:31:27.866Z,10.49
2023-05-17T01:33:40.827Z,10.49
2023-05-17T01:35:53.455Z,10.50
2023-05-17T01:38:06.075Z,10.49
2023-05-17T01:40:19.731Z,10.49
2023-05-17T01:42:33.618Z,10.48
2023-05-17T01:45:11.240Z,10.49
2023-05-17T01:47:33.854Z,10.45
2023-05-17T01:49:53.992Z,10.42
2023-05-17T01:52:17.686Z,10.39
2023-05-17T01:54:36.968Z,10.37
2023-05-17T01:56:57.424Z,10.36
2023-05-17T01:59:15.613Z,10.34
2023-05-17T02:01:30.585Z,10.35
2023-05-17T02:03:43.718Z,10.38
2023-05-17T02:05:56.368Z,10.38
2023-05-17T02:08:08.954Z,10.36
2023-05-17T02:10:21.661Z,10.35
2023-05-17T02:12:34.347Z,10.32
2023-05-17T02:14:46.986Z,10.31
2023-05-17T02:16:59.677Z,10.26
2023-05-17T02:19:13.198Z,10.23
2023-05-17T02:21:25.815Z,10.20
2023-05-17T02:23:38.413Z,10.19
2023-05-17T02:25:51.119Z,10.18
2023-05-17T02:28:03.900Z,10.19
2023-05-17T02:30:18.145Z,10.18
2023-05-17T02:32:32.170Z,10.14
2023-05-17T02:34:44.811Z,10.12
2023-05-17T02:36:57.395Z,10.10
2023-05-17T02:39:10.083Z,10.08
2023-05-17T02:41:22.663Z,10.06
2023-05-17T02:43:35.303Z,10.02
2023-05-17T02:45:47.888Z,9.98
2023-05-17T02:48:00.557Z,9.96
2023-05-17T02:50:13.155Z,9.93
2023-05-17T02:52:25.841Z,9.90
2023-05-17T02:54:38.452Z,9.88
2023-05-17T02:56:51.323Z,9.84
2023-05-17T02:59:04.047Z,9.82
2023-05-17T03:01:16.634Z,9.79
2023-05-17T03:03:29.652Z,9.74
2023-05-17T03:05:42.370Z,9.67
2023-05-17T03:07:55.057Z,9.62
2023-05-17T03:10:08.044Z,9.55
2023-05-17T03:12:20.806Z,9.52
2023-05-17T03:14:33.418Z,9.49
2023-05-17T03:16:46.041Z,9.46
2023-05-17T03:18:58.839Z,9.44
2023-05-17T03:21:14.136Z,9.41
2023-05-17T03:23:26.783Z,9.36
2023-05-17T03:25:39.439Z,9.34
2023-05-17T03:27:52.105Z,9.33
2023-05-17T03:30:05.179Z,9.34
2023-05-17T03:32:17.835Z,9.33
2023-05-17T03:34:30.511Z,9.31
2023-05-17T03:36:43.256Z,9.30
2023-05-17T03:38:55.885Z,9.30
2023-05-17T03:41:08.916Z,9.30
2023-05-17T03:43:21.551Z,9.31
2023-05-17T03:45:34.427Z,9.33
2023-05-17T03:47:47.146Z,9.29
2023-05-17T03:49:59.847Z,9.28
2023-05-17T03:52:12.651Z,9.26
2023-05-17T03:54:25.392Z,9.27
2023-05-17T03:56:37.945Z,9.28
2023-05-17T03:58:50.594Z,9.29
2023-05-17T04:01:04.254Z,9.28
2023-05-17T04:03:19.269Z,9.30
2023-05-17T04:05:32.873Z,9.32
2023-05-17T04:07:45.652Z,9.34
2023-05-17T04:10:03.132Z,9.37
2023-05-17T04:12:16.399Z,9.35
2023-05-17T04:14:28.982Z,9.36
2023-05-17T04:16:41.549Z,9.39
2023-05-17T04:18:54.214Z,9.44
2023-05-17T04:21:07.048Z,9.49
2023-05-17T04:23:19.631Z,9.49
2023-05-17T04:25:32.321Z,9.49
2023-05-17T04:27:46.095Z,9.52
2023-05-17T04:29:58.675Z,9.53
2023-05-17T04:32:11.329Z,9.56
2023-05-17T04:34:24.968Z,9.55
2023-05-17T04:36:37.751Z,9.54
2023-05-17T04:38:50.425Z,9.53
2023-05-17T04:41:07.030Z,9.52
2023-05-17T04:43:19.680Z,9.50
2023-05-17T04:45:33.925Z,9.50
2023-05-17T04:47:47.452Z,9.51
2023-05-17T04:50:02.917Z,9.51
2023-05-17T04:52:15.672Z,9.49
2023-05-17T04:54:28.314Z,9.43
2023-05-17T04:56:41.160Z,9.39
2023-05-17T04:58:54.457Z,9.37
2023-05-17T05:01:07.077Z,9.39
2023-05-17T05:03:19.794Z,9.43
2023-05-17T05:05:32.404Z,9.44
2023-05-17T05:07:45.020Z,9.44
2023-05-17T05:09:57.714Z,9.47
2023-05-17T05:12:11.107Z,9.52
2023-05-17T05:14:23.746Z,9.55
2023-05-17T05:16:36.645Z,9.60
2023-05-17T05:18:49.373Z,9.64
2023-05-17T05:21:02.370Z,9.66
2023-05-17T05:23:15.062Z,9.69
2023-05-17T05:25:28.100Z,9.71
2023-05-17T05:27:40.962Z,9.73
2023-05-17T05:29:55.426Z,9.81
2023-05-17T05:32:08.653Z,9.90
2023-05-17T05:34:21.233Z,9.97
2023-05-17T05:36:34.478Z,10.02
2023-05-17T05:38:47.594Z,10.10
2023-05-17T05:41:00.132Z,10.14
2023-05-17T05:43:12.766Z,10.18
2023-05-17T05:45:25.384Z,10.23
2023-05-17T05:47:38.220Z,10.27
2023-05-17T05:49:50.820Z,10.34
2023-05-17T05:52:03.581Z,10.43
2023-05-17T05:54:16.306Z,10.49
2023-05-17T05:56:29.064Z,10.54
2023-05-17T05:58:41.660Z,10.55
2023-05-17T06:00:54.253Z,10.64
2023-05-17T06:03:06.962Z,10.76
2023-05-17T06:05:19.840Z,10.87
2023-05-17T06:07:32.424Z,10.97
2023-05-17T06:09:44.982Z,11.05
2023-05-17T06:11:57.574Z,11.04
2023-05-17T06:14:11.193Z,11.10
2023-05-17T06:16:23.792Z,11.23
2023-05-17T06:18:36.553Z,11.34
2023-05-17T06:20:49.309Z,11.42
2023-05-17T06:23:02.121Z,11.45
2023-05-17T06:25:15.079Z,11.48
2023-05-17T06:27:27.720Z,11.49
2023-05-17T06:29:40.342Z,11.46
2023-05-17T06:31:53.597Z,11.43
2023-05-17T06:34:06.323Z,11.41
2023-05-17T06:36:19.114Z,11.46
2023-05-17T06:38:31.708Z,11.51
2023-05-17T06:40:44.358Z,11.57
2023-05-17T06:42:56.982Z,11.63
2023-05-17T06:45:10.233Z,11.62
2023-05-17T06:47:22.824Z,11.69
2023-05-17T06:49:35.574Z,11.74
2023-05-17T06:51:48.827Z,11.78
2023-05-17T06:54:01.425Z,11.77
2023-05-17T06:56:14.678Z,11.78
2023-05-17T06:58:27.308Z,11.75
2023-05-17T07:00:39.928Z,11.76
2023-05-17T07:02:52.793Z,11.78
2023-05-17T07:05:06.874Z,11.82
2023-05-17T07:07:19.561Z,11.82
2023-05-17T07:09:32.176Z,11.88
2023-05-17T07:11:44.794Z,11.93
2023-05-17T07:13:57.434Z,11.94
2023-05-17T07:16:10.426Z,11.97
2023-05-17T07:18:23.059Z,11.99
2023-05-17T07:20:35.773Z,11.98
2023-05-17T07:22:48.476Z,12.06
2023-05-17T07:25:01.185Z,12.13
2023-05-17T07:27:13.957Z,12.17
2023-05-17T07:29:26.584Z,12.18
2023-05-17T07:31:39.199Z,12.19
2023-05-17T07:33:52.119Z,12.21
2023-05-17T07:36:05.692Z,12.20
2023-05-17T07:38:18.325Z,12.16
2023-05-17T07:40:30.938Z,12.16
2023-05-17T07:42:43.672Z,12.21
2023-05-17T07:44:56.468Z,12.26
2023-05-17T07:47:09.133Z,12.35
2023-05-17T07:49:23.821Z,12.42
2023-05-17T07:51:36.434Z,12.46
2023-05-17T07:53:48.994Z,12.52
2023-05-17T07:56:01.604Z,12.58
2023-05-17T07:58:14.141Z,12.62
2023-05-17T08:00:28.862Z,12.66
2023-05-17T08:02:41.526Z,12.72
2023-05-17T08:04:54.463Z,12.73
2023-05-17T08:07:07.383Z,12.68
2023-05-17T08:09:22.556Z,12.62
2023-05-17T08:11:35.341Z,12.60
2023-05-17T08:13:47.956Z,12.61
2023-05-17T08:16:12.832Z,12.63
2023-05-17T08:18:27.201Z,12.63
2023-05-17T08:20:39.941Z,12.62
2023-05-17T08:22:52.591Z,12.57
2023-05-17T08:25:07.443Z,12.53
2023-05-17T08:27:20.081Z,12.53
2023-05-17T08:29:32.632Z,12.56
2023-05-17T08:31:45.592Z,12.58
2023-05-17T08:34:00.896Z,12.64
2023-05-17T08:36:13.517Z,12.68
2023-05-17T08:38:26.280Z,12.70
2023-05-17T08:40:38.972Z,12.75
2023-05-17T08:42:52.625Z,12.76
2023-05-17T08:45:08.447Z,12.73
2023-05-17T08:47:29.997Z,12.72
2023-05-17T08:49:44.441Z,12.73
2023-05-17T08:52:00.743Z,12.72
2023-05-17T08:54:14.227Z,12.71
2023-05-17T08:56:28.986Z,12.69
2023-05-17T08:58:55.292Z,12.70
2023-05-17T09:01:10.027Z,12.73
2023-05-17T09:03:24.119Z,12.78
2023-05-17T09:05:36.941Z,12.79
2023-05-17T09:07:49.665Z,12.75
2023-05-17T09:10:05.716Z,12.77
2023-05-17T09:12:18.892Z,12.86
2023-05-17T09:14:35.753Z,12.94
2023-05-17T09:16:59.850Z,12.98
2023-05-17T09:19:17.712Z,12.99
2023-05-17T09:21:31.595Z,13.05
2023-05-17T09:23:57.681Z,13.14
2023-05-17T09:26:18.211Z,13.20
2023-05-17T09:28:38.265Z,13.30
2023-05-17T09:30:50.889Z,13.37
2023-05-17T09:33:08.597Z,13.43
2023-05-17T09:35:29.388Z,13.55
2023-05-17T09:37:42.976Z,13.70
2023-05-17T09:39:55.638Z,13.77
2023-05-17T09:42:09.500Z,13.76
2023-05-17T09:44:22.849Z,13.73
2023-05-17T09:46:38.848Z,13.70
2023-05-17T09:48:56.462Z,13.70
2023-05-17T09:51:09.336Z,13.67
2023-05-17T09:53:26.303Z,13.63
2023-05-17T09:55:39.417Z,13.64
2023-05-17T09:57:52.184Z,13.69
2023-05-17T10:00:11.910Z,13.71
2023-05-17T10:02:30.984Z,13.73
2023-05-17T10:04:44.871Z,13.67
2023-05-17T10:07:00.143Z,13.63
2023-05-17T10:09:15.730Z,13.62
2023-05-17T10:11:34.235Z,13.69
2023-05-17T10:14:18.537Z,13.71
2023-05-17T10:16:34.643Z,13.72
2023-05-17T10:18:49.160Z,13.80
2023-05-17T10:21:02.116Z,13.88
2023-05-17T10:23:15.533Z,13.97
2023-05-17T10:25:28.544Z,14.00
2023-05-17T10:27:41.917Z,14.07
2023-05-17T10:29:55.503Z,14.18
2023-05-17T10:32:08.652Z,14.22
2023-05-17T10:34:21.372Z,14.24
2023-05-17T10:36:34.310Z,14.22
2023-05-17T10:38:47.529Z,14.19
2023-05-17T10:41:02.280Z,14.13
2023-05-17T10:43:16.299Z,14.13
2023-05-17T10:45:29.365Z,14.14
2023-05-17T10:47:43.193Z,14.21
2023-05-17T10:49:55.972Z,14.22
2023-05-17T10:52:27.384Z,14.15
2023-05-17T10:54:43.087Z,14.16
2023-05-17T10:56:55.812Z,14.25
2023-05-17T10:59:22.852Z,14.23
2023-05-17T11:01:57.514Z,14.21
2023-05-17T11:04:27.042Z,14.25
2023-05-17T11:06:40.402Z,14.27
2023-05-17T11:09:16.490Z,14.30
2023-05-17T11:11:29.106Z,14.34
2023-05-17T11:13:46.455Z,14.39
2023-05-17T11:16:07.534Z,14.38
2023-05-17T11:18:30.049Z,14.36
2023-05-17T11:20:44.892Z,14.26
2023-05-17T11:23:15.257Z,14.30
2023-05-17T11:25:30.379Z,14.38
2023-05-17T11:27:48.530Z,14.48
2023-05-17T11:30:09.298Z,14.55
2023-05-17T11:32:32.556Z,14.56
2023-05-17T11:34:52.603Z,14.57
2023-05-17T11:37:11.933Z,14.58
2023-05-17T11:39:25.426Z,14.53
2023-05-17T11:41:51.385Z,14.49
2023-05-17T11:44:04.420Z,14.41
2023-05-17T11:46:22.657Z,14.35
2023-05-17T11:48:35.476Z,14.37
2023-05-17T11:50:49.576Z,14.41
2023-05-17T11:53:04.024Z,14.47
2023-05-17T11:55:17.240Z,14.55
2023-05-17T11:57:31.413Z,14.52
2023-05-17T11:59:44.213Z,14.53
2023-05-17T12:01:56.848Z,14.55
2023-05-17T12:04:09.461Z,14.49
2023-05-17T12:06:22.524Z,14.40
2023-05-17T12:08:37.004Z,14.29
2023-05-17T12:10:51.804Z,14.25
2023-05-17T12:13:04.863Z,14.18
2023-05-17T12:15:20.877Z,14.17
2023-05-17T12:17:40.067Z,14.17
2023-05-17T12:19:54.184Z,14.20
2023-05-17T12:22:14.597Z,14.19
2023-05-17T12:24:37.569Z,14.13
2023-05-17T12:26:50.393Z,14.04
2023-05-17T12:29:03.021Z,14.00
2023-05-17T12:31:18.499Z,13.97
2023-05-17T12:33:33.714Z,13.91
2023-05-17T12:35:46.551Z,13.93
2023-05-17T12:38:00.266Z,13.97
2023-05-17T12:40:13.269Z,14.03
2023-05-17T12:42:26.011Z,14.13
2023-05-17T12:44:39.148Z,14.23
2023-05-17T12:46:54.020Z,14.26
2023-05-17T12:49:12.053Z,14.27
2023-05-17T12:51:25.067Z,14.22
2023-05-17T12:53:42.116Z,14.14
2023-05-17T12:55:57.421Z,14.03
2023-05-17T12:58:09.972Z,13.97
2023-05-17T13:00:22.783Z,13.96
2023-05-17T13:02:35.379Z,13.96
2023-05-17T13:04:48.125Z,13.97
2023-05-17T13:07:04.232Z,13.98
2023-05-17T13:09:18.610Z,13.99
2023-05-17T13:11:31.780Z,14.02
2023-05-17T13:13:44.373Z,14.00
2023-05-17T13:15:58.280Z,14.01
2023-05-17T13:18:16.207Z,14.05
2023-05-17T13:20:29.275Z,14.07
2023-05-17T13:22:49.313Z,14.17
2023-05-17T13:25:03.212Z,14.26
2023-05-17T13:27:17.056Z,14.30
2023-05-17T13:29:39.025Z,14.27
2023-05-17T13:31:53.065Z,14.18
2023-05-17T13:34:06.057Z,14.09
2023-05-17T13:36:18.711Z,14.09
2023-05-17T13:38:31.321Z,14.10
2023-05-17T13:40:44.237Z,14.17
2023-05-17T13:42:56.977Z,14.23
2023-05-17T13:45:11.747Z,14.23
2023-05-17T13:47:24.659Z,14.23
2023-05-17T13:49:37.724Z,14.30
2023-05-17T13:51:50.675Z,14.35
2023-05-17T13:54:05.238Z,14.38
2023-05-17T13:56:18.231Z,14.39
2023-05-17T13:58:30.772Z,14.42
2023-05-17T14:00:44.478Z,14.43
2023-05-17T14:02:57.195Z,14.46
2023-05-17T14:05:10.158Z,14.49
2023-05-17T14:07:23.475Z,14.52
2023-05-17T14:09:36.890Z,14.52
2023-05-17T14:11:49.599Z,14.48
2023-05-17T14:14:03.428Z,14.40
2023-05-17T14:16:16.167Z,14.33
2023-05-17T14:18:29.094Z,14.25
2023-05-17T14:20:41.704Z,14.22
2023-05-17T14:22:54.336Z,14.21
2023-05-17T14:25:08.112Z,14.21
2023-05-17T14:27:24.093Z,14.17
2023-05-17T14:29:36.646Z,14.19
2023-05-17T14:31:49.277Z,14.24
2023-05-17T14:34:03.691Z,14.27
2023-05-17T14:36:16.380Z,14.34
2023-05-17T14:38:29.038Z,14.41
2023-05-17T14:40:41.663Z,14.44
2023-05-17T14:42:55.229Z,14.44
2023-05-17T14:45:08.958Z,14.43
2023-05-17T14:47:21.610Z,14.38
2023-05-17T14:49:34.623Z,14.37
2023-05-17T14:51:47.144Z,14.39
2023-05-17T14:53:59.766Z,14.38
2023-05-17T14:56:12.546Z,14.39
2023-05-17T14:58:25.565Z,14.38
2023-05-17T15:00:38.314Z,14.38
2023-05-17T15:02:51.273Z,14.40
2023-05-17T15:05:04.442Z,14.43
2023-05-17T15:07:17.114Z,14.49
2023-05-17T15:09:31.052Z,14.57
2023-05-17T15:11:44.635Z,14.60
2023-05-17T15:13:57.408Z,14.60
2023-05-17T15:16:10.225Z,14.63
2023-05-17T15:18:22.942Z,14.65
2023-05-17T15:20:38.680Z,14.71
2023-05-17T15:22:51.480Z,14.72
2023-05-17T15:25:05.466Z,14.68
2023-05-17T15:27:18.149Z,14.68
2023-05-17T15:29:31.279Z,14.70
2023-05-17T15:31:44.317Z,14.69
2023-05-17T15:33:57.639Z,14.66
2023-05-17T15:36:13.126Z,14.65
2023-05-17T15:38:26.099Z,14.69
2023-05-17T15:40:38.788Z,14.71
2023-05-17T15:42:52.598Z,14.67
2023-05-17T15:45:06.376Z,14.62
2023-05-17T15:47:19.387Z,14.56
2023-05-17T15:49:33.609Z,14.45
2023-05-17T15:51:46.703Z,14.35
2023-05-17T15:53:59.285Z,14.31
2023-05-17T15:56:11.960Z,14.32
2023-05-17T15:58:27.785Z,14.29
2023-05-17T16:00:40.404Z,14.26
2023-05-17T16:02:53.117Z,14.26
2023-05-17T16:05:07.243Z,14.25
2023-05-17T16:07:19.894Z,14.27
2023-05-17T16:09:32.455Z,14.26
2023-05-17T16:11:45.080Z,14.23
2023-05-17T16:13:57.830Z,14.15
2023-05-17T16:16:12.310Z,14.10
2023-05-17T16:18:25.129Z,14.06
2023-05-17T16:20:37.817Z,14.04
2023-05-17T16:22:51.771Z,14.03
2023-05-17T16:25:05.291Z,14.02
2023-05-17T16:27:17.810Z,13.99
2023-05-17T16:29:30.653Z,14.00
2023-05-17T16:31:43.863Z,14.00
2023-05-17T16:33:56.557Z,13.99
2023-05-17T16:36:09.310Z,13.92
2023-05-17T16:38:21.865Z,13.86
2023-05-17T16:40:34.476Z,13.84
2023-05-17T16:42:47.079Z,13.79
2023-05-17T16:44:59.645Z,13.74
2023-05-17T16:47:12.271Z,13.70
2023-05-17T16:49:24.974Z,13.65
2023-05-17T16:51:37.594Z,13.62
2023-05-17T16:53:50.198Z,13.61
2023-05-17T16:56:03.018Z,13.61
2023-05-17T16:58:15.654Z,13.60
2023-05-17T17:00:29.926Z,13.60
2023-05-17T17:02:42.995Z,13.61
2023-05-17T17:04:55.910Z,13.60
2023-05-17T17:07:08.949Z,13.60
2023-05-17T17:09:21.732Z,13.58
2023-05-17T17:11:34.438Z,13.57
2023-05-17T17:13:47.268Z,13.53
2023-05-17T17:16:00.012Z,13.52
2023-05-17T17:18:12.683Z,13.50
2023-05-17T17:20:25.407Z,13.48
2023-05-17T17:22:37.963Z,13.43
2023-05-17T17:24:50.552Z,13.40
2023-05-17T17:27:03.344Z,13.39
2023-05-17T17:29:15.924Z,13.37
2023-05-17T17:31:28.597Z,13.37
2023-05-17T17:33:41.220Z,13.38
2023-05-17T17:35:53.832Z,13.37
2023-05-17T17:38:06.418Z,13.30
2023-05-17T17:40:19.114Z,13.21
2023-05-17T17:42:32.326Z,13.14
2023-05-17T17:44:44.993Z,13.12
2023-05-17T17:46:57.701Z,13.10
2023-05-17T17:49:10.646Z,13.05
2023-05-17T17:51:23.445Z,13.03
2023-05-17T17:53:36.182Z,12.97
2023-05-17T17:55:48.914Z,12.95
2023-05-17T17:58:02.002Z,12.94
2023-05-17T18:00:16.340Z,12.93
2023-05-17T18:02:28.985Z,12.88
2023-05-17T18:04:41.661Z,12.85
2023-05-17T18:07:18.803Z,12.82
2023-05-17T18:09:31.429Z,12.70
2023-05-17T18:11:44.020Z,12.72
2023-05-17T18:13:56.660Z,12.72
2023-05-17T18:16:09.266Z,12.68
2023-05-17T18:18:21.924Z,12.63
2023-05-17T18:20:34.540Z,12.60
2023-05-17T18:22:47.311Z,12.54
2023-05-17T18:24:59.994Z,12.49
2023-05-17T18:27:14.043Z,12.42
2023-05-17T18:29:26.618Z,12.35
2023-05-17T18:31:39.249Z,12.28
2023-05-17T18:33:54.302Z,12.27
2023-05-17T18:36:08.345Z,12.25
2023-05-17T18:38:20.929Z,12.25
2023-05-17T18:40:33.606Z,12.27
2023-05-17T18:42:46.290Z,12.29
2023-05-17T18:44:59.756Z,12.28
2023-05-17T18:47:12.524Z,12.25
2023-05-17T18:49:26.475Z,12.21
2023-05-17T18:51:39.290Z,12.17
2023-05-17T18:53:51.922Z,12.15
2023-05-17T18:56:04.705Z,12.15
2023-05-17T18:58:17.315Z,12.16
2023-05-17T19:00:30.099Z,12.17
2023-05-17T19:02:42.994Z,12.18
2023-05-17T19:04:55.675Z,12.18
2023-05-17T19:07:08.226Z,12.18
2023-05-17T19:09:20.806Z,12.18
2023-05-17T19:11:33.481Z,12.18
2023-05-17T19:13:46.265Z,12.15
2023-05-17T19:16:00.397Z,12.11
2023-05-17T19:18:13.063Z,12.05
2023-05-17T19:20:26.613Z,12.03
2023-05-17T19:22:39.345Z,12.02
2023-05-17T19:24:52.167Z,11.89
2023-05-17T19:27:05.702Z,11.72
2023-05-17T19:29:18.424Z,11.57
2023-05-17T19:31:31.207Z,11.49
2023-05-17T19:33:43.936Z,11.52
2023-05-17T19:35:56.559Z,11.54
2023-05-17T19:38:09.655Z,11.55
2023-05-17T19:40:23.152Z,11.51
2023-05-17T19:42:35.765Z,11.47
2023-05-17T19:44:48.856Z,11.42
2023-05-17T19:47:01.662Z,11.36
2023-05-17T19:49:14.262Z,11.33
2023-05-17T19:51:26.958Z,11.30
2023-05-17T19:53:51.758Z,11.27
2023-05-17T19:56:08.115Z,11.23
2023-05-17T19:58:20.776Z,11.19
2023-05-17T20:00:33.456Z,11.16
2023-05-17T20:02:49.147Z,11.13
2023-05-17T20:05:06.131Z,11.14
2023-05-17T20:07:20.387Z,11.15
2023-05-17T20:09:33.013Z,11.15
2023-05-17T20:11:45.823Z,11.14
2023-05-17T20:13:58.470Z,11.12
2023-05-17T20:16:14.009Z,11.09
2023-05-17T20:18:29.873Z,11.04
2023-05-17T20:20:42.627Z,10.99
2023-05-17T20:22:55.388Z,10.97
2023-05-17T20:25:07.994Z,10.93
2023-05-17T20:27:20.648Z,10.89
2023-05-17T20:29:33.261Z,10.86
2023-05-17T20:31:45.894Z,10.82
2023-05-17T20:33:59.053Z,10.80
2023-05-17T20:36:14.122Z,10.76
2023-05-17T20:38:26.709Z,10.70
2023-05-17T20:40:39.329Z,10.68
2023-05-17T20:42:53.449Z,10.67
2023-05-17T20:45:06.837Z,10.65
2023-05-17T20:47:20.373Z,10.65
2023-05-17T20:49:32.962Z,10.65
2023-05-17T20:51:46.085Z,10.68
2023-05-17T20:53:59.151Z,10.68
2023-05-17T20:56:14.082Z,10.65
2023-05-17T20:58:28.955Z,10.63
2023-05-17T21:00:42.013Z,10.62
2023-05-17T21:02:54.732Z,10.58
2023-05-17T21:05:09.119Z,10.51
2023-05-17T21:07:22.394Z,10.45
2023-05-17T21:09:35.166Z,10.43
2023-05-17T21:11:47.774Z,10.40
2023-05-17T21:14:00.463Z,10.41
2023-05-17T21:16:13.064Z,10.42
2023-05-17T21:18:25.823Z,10.39
2023-05-17T21:20:39.139Z,10.38
2023-05-17T21:22:51.738Z,10.35
2023-05-17T21:25:04.882Z,10.35
2023-05-17T21:27:17.576Z,10.33
2023-05-17T21:29:30.112Z,10.31
2023-05-17T21:31:42.748Z,10.25
2023-05-17T21:33:55.899Z,10.16
2023-05-17T21:36:08.439Z,10.09
2023-05-17T21:38:21.120Z,10.06
2023-05-17T21:40:33.921Z,10.04
2023-05-17T21:42:47.804Z,9.99
2023-05-17T21:45:00.418Z,9.94
2023-05-17T21:47:13.119Z,9.92
2023-05-17T21:49:25.772Z,9.90
2023-05-17T21:51:38.865Z,9.88
2023-05-17T21:53:51.498Z,9.88
2023-05-17T21:56:04.321Z,9.87
2023-05-17T21:58:21.247Z,9.88
2023-05-17T22:00:33.802Z,9.88
2023-05-17T22:02:47.414Z,9.87
2023-05-17T22:05:00.030Z,9.89
2023-05-17T22:07:13.944Z,9.88
2023-05-17T22:09:26.557Z,9.88
2023-05-17T22:11:42.828Z,9.89
2023-05-17T22:13:56.079Z,9.90
2023-05-17T22:16:08.894Z,9.89
2023-05-17T22:18:21.553Z,9.90
2023-05-17T22:20:34.178Z,9.91
2023-05-17T22:22:46.768Z,9.90
2023-05-17T22:24:59.430Z,9.91
2023-05-17T22:27:12.126Z,9.90
2023-05-17T22:29:24.904Z,9.90
2023-05-17T22:31:37.751Z,9.89
2023-05-17T22:33:53.686Z,9.89
2023-05-17T22:36:06.626Z,9.89
2023-05-17T22:38:19.597Z,9.88
2023-05-17T22:40:32.613Z,9.89
2023-05-17T22:42:45.547Z,9.91
2023-05-17T22:44:58.164Z,9.87
2023-05-17T22:47:14.557Z,9.86
2023-05-17T22:49:36.613Z,9.83
2023-05-17T22:51:49.253Z,9.80
2023-05-17T22:54:03.236Z,9.80
2023-05-17T22:56:15.938Z,9.77
2023-05-17T22:58:28.568Z,9.80
2023-05-17T23:00:41.595Z,9.81
2023-05-17T23:02:54.217Z,9.81
2023-05-17T23:05:07.187Z,9.82
2023-05-17T23:07:19.785Z,9.80
2023-05-17T23:09:37.967Z,9.81
2023-05-17T23:11:50.567Z,9.78
2023-05-17T23:14:03.235Z,9.76
2023-05-17T23:16:15.885Z,9.75
2023-05-17T23:18:28.531Z,9.77
2023-05-17T23:20:42.071Z,9.79
2023-05-17T23:22:54.711Z,9.78
2023-05-17T23:25:07.639Z,9.76
2023-05-17T23:27:21.918Z,9.76
2023-05-17T23:29:34.924Z,9.78
2023-05-17T23:31:48.586Z,9.78
2023-05-17T23:34:01.297Z,9.76
2023-05-17T23:36:13.841Z,9.74
2023-05-17T23:38:26.834Z,9.72
2023-05-17T23:40:40.829Z,9.69
2023-05-17T23:42:53.446Z,9.67
2023-05-17T23:45:07.422Z,9.66
2023-05-17T23:47:20.023Z,9.63
2023-05-17T23:49:32.644Z,9.62
2023-05-17T23:51:46.485Z,9.59
2023-05-17T23:53:59.043Z,9.55
2023-05-17T23:56:11.703Z,9.52
2023-05-17T23:58:26.016Z,9.47
